Time;durP1;ratioP1;P1;durP2;ratioP2;P2;SDS_P1;SDS_P2;PMS_P1;PMS_P2;Temp;Humidity;BMP_temperature;BMP_pressure;BME280_temperature;BME280_humidity;BME280_pressure;Samples;Min_cycle;Max_cycle;Signal;HPM_P1;HPM_P2
2022/05/03 00:01:22;;;;;;;;;;;18.00;79.10;;;;;;4590931;19;19927;-21
2022/05/03 00:02:59;;;;;;;;;;;17.90;79.10;;;;;;4591295;19;20280;-20
2022/05/03 00:04:40;;;;;;;;;;;18.00;79.10;;;;;;4591143;19;20239;-20
2022/05/03 00:06:37;;;;;;;;;;;18.00;79.10;;;;;;4591613;19;19948;-20
2022/05/03 00:08:19;;;;;;;;;;;17.90;79.10;;;;;;4591214;19;19917;-20
2022/05/03 00:10:26;;;;;;;;;;;17.90;79.10;;;;;;4590925;19;19911;-21
2022/05/03 00:12:01;;;;;;;;;;;17.90;79.10;;;;;;4590839;19;19914;-19
2022/05/03 00:13:53;;;;;;;;;;;18.00;79.20;;;;;;4590885;19;19918;-20
2022/05/03 00:15:24;;;;;;;;;;;17.90;79.20;;;;;;4590493;19;19953;-20
2022/05/03 00:16:55;;;;;;;;;;;17.90;79.20;;;;;;4589199;19;19922;-19
2022/05/03 00:18:26;;;;;;;;;;;17.90;79.20;;;;;;4591044;19;19943;-19
2022/05/03 00:19:57;;;;;;;;;;;17.90;79.20;;;;;;4590306;19;19921;-20
2022/05/03 00:21:28;;;;;;;;;;;17.90;79.20;;;;;;4590591;19;19921;-20
2022/05/03 00:23:00;;;;;;;;;;;17.90;79.20;;;;;;4591267;19;19910;-20
2022/05/03 00:24:32;;;;;;;;;;;17.90;79.20;;;;;;4590468;19;19923;-20
2022/05/03 00:26:03;;;;;;;;;;;17.90;79.20;;;;;;4590587;19;19923;-20
2022/05/03 00:27:34;;;;;;;;;;;17.90;79.20;;;;;;4589512;19;19927;-20
2022/05/03 00:29:05;;;;;;;;;;;17.90;79.20;;;;;;4590742;19;20331;-20
2022/05/03 00:30:36;;;;;;;;;;;17.90;79.20;;;;;;4588873;19;19947;-21
2022/05/03 00:32:07;;;;;;;;;;;17.90;79.20;;;;;;4589380;19;20313;-23
2022/05/03 00:33:38;;;;;;;;;;;17.90;79.20;;;;;;4590412;19;19927;-21
2022/05/03 00:35:09;;;;;;;;;;;17.90;79.30;;;;;;4590044;19;19923;-20
2022/05/03 00:36:40;;;;;;;;;;;17.90;79.20;;;;;;4590369;19;19939;-20
2022/05/03 00:38:11;;;;;;;;;;;17.90;79.20;;;;;;4587525;19;19966;-20
2022/05/03 00:39:42;;;;;;;;;;;17.90;79.20;;;;;;4589893;19;19911;-19
2022/05/03 00:41:32;;;;;;;;;;;17.90;79.20;;;;;;4590141;19;19942;-20
2022/05/03 00:43:14;;;;;;;;;;;17.80;79.20;;;;;;4590437;19;20358;-20
2022/05/03 00:45:04;;;;;;;;;;;17.80;79.10;;;;;;4590382;19;19926;-20
2022/05/03 00:46:36;;;;;;;;;;;17.80;79.20;;;;;;4590283;19;19922;-21
2022/05/03 00:48:26;;;;;;;;;;;17.80;79.10;;;;;;4590658;19;19922;-20
2022/05/03 00:50:09;;;;;;;;;;;17.90;79.20;;;;;;4590101;19;19915;-20
2022/05/03 00:52:10;;;;;;;;;;;17.80;79.10;;;;;;4590810;19;19915;-20
2022/05/03 00:53:59;;;;;;;;;;;17.80;79.10;;;;;;4591110;19;20325;-21
2022/05/03 00:55:49;;;;;;;;;;;17.80;79.10;;;;;;4592405;19;19970;-20
2022/05/03 00:57:34;;;;;;;;;;;17.80;79.10;;;;;;4592398;19;19910;-20
2022/05/03 00:59:22;;;;;;;;;;;17.80;79.20;;;;;;4589324;19;19911;-21
2022/05/03 01:00:54;;;;;;;;;;;17.80;79.10;;;;;;4590988;19;19990;-20
2022/05/03 01:02:28;;;;;;;;;;;17.80;79.10;;;;;;4591371;19;20298;-20
2022/05/03 01:03:59;;;;;;;;;;;17.80;79.10;;;;;;4591011;19;19980;-20
2022/05/03 01:05:36;;;;;;;;;;;17.80;79.00;;;;;;4591655;19;19926;-20
2022/05/03 01:07:10;;;;;;;;;;;17.80;78.90;;;;;;4591772;19;19978;-20
2022/05/03 01:08:41;;;;;;;;;;;17.80;78.90;;;;;;4592753;19;19911;-21
2022/05/03 01:10:23;;;;;;;;;;;17.80;78.90;;;;;;4591592;19;20000;-21
2022/05/03 01:12:09;;;;;;;;;;;17.80;78.80;;;;;;4591868;19;19918;-19
2022/05/03 01:13:42;;;;;;;;;;;17.80;78.80;;;;;;4592566;19;19978;-21
2022/05/03 01:15:23;;;;;;;;;;;17.80;78.70;;;;;;4591189;19;19907;-20
2022/05/03 01:16:55;;;;;;;;;;;17.70;78.70;;;;;;4590751;19;19942;-20
2022/05/03 01:18:26;;;;;;;;;;;17.80;78.70;;;;;;4591693;19;19930;-20
2022/05/03 01:20:07;;;;;;;;;;;17.80;78.70;;;;;;4591902;19;19936;-20
2022/05/03 01:21:45;;;;;;;;;;;17.80;78.70;;;;;;4591422;19;20329;-20
2022/05/03 01:23:34;;;;;;;;;;;17.80;78.70;;;;;;4592460;19;19918;-20
2022/05/03 01:25:08;;;;;;;;;;;17.70;78.50;;;;;;4591969;19;19921;-21
2022/05/03 01:26:57;;;;;;;;;;;17.80;78.50;;;;;;4591650;19;20325;-20
2022/05/03 01:28:30;;;;;;;;;;;17.80;78.50;;;;;;4591798;19;19919;-20
2022/05/03 01:30:00;;;;;;;;;;;17.80;78.40;;;;;;4591738;19;19926;-19
2022/05/03 01:31:32;;;;;;;;;;;17.80;78.40;;;;;;4588935;19;19940;-20
2022/05/03 01:33:06;;;;;;;;;;;17.70;78.30;;;;;;4590075;19;19918;-21
2022/05/03 01:34:37;;;;;;;;;;;17.80;78.40;;;;;;4591287;19;20373;-20
2022/05/03 01:36:08;;;;;;;;;;;17.80;78.30;;;;;;4590006;19;19934;-21
2022/05/03 01:37:45;;;;;;;;;;;17.70;78.20;;;;;;4591253;19;20301;-21
2022/05/03 01:39:35;;;;;;;;;;;17.70;78.20;;;;;;4589365;19;19978;-20
2022/05/03 01:41:12;;;;;;;;;;;17.70;78.20;;;;;;4590528;19;19919;-20
2022/05/03 01:42:45;;;;;;;;;;;17.70;78.20;;;;;;4590387;19;19919;-23
2022/05/03 01:44:34;;;;;;;;;;;17.80;78.30;;;;;;4590222;19;20358;-20
2022/05/03 01:46:15;;;;;;;;;;;17.70;78.20;;;;;;4590598;19;20248;-20
2022/05/03 01:47:46;;;;;;;;;;;17.70;78.20;;;;;;4590965;19;20326;-20
2022/05/03 01:51:13;;;;;;;;;;;17.70;78.20;;;;;;4590973;19;19922;-20
2022/05/03 01:52:47;;;;;;;;;;;17.80;78.40;;;;;;4590138;19;19914;-20
2022/05/03 01:54:21;;;;;;;;;;;17.70;78.20;;;;;;4590912;19;19939;-20
2022/05/03 01:56:10;;;;;;;;;;;17.80;78.30;;;;;;4591125;19;19934;-20
2022/05/03 01:57:44;;;;;;;;;;;17.70;78.20;;;;;;4591588;19;19915;-19
2022/05/03 01:59:18;;;;;;;;;;;17.80;78.30;;;;;;4591441;19;19925;-19
2022/05/03 02:01:13;;;;;;;;;;;17.80;78.40;;;;;;4589432;19;19946;-21
2022/05/03 02:02:53;;;;;;;;;;;17.70;78.30;;;;;;4587612;19;19928;-20
2022/05/03 02:04:36;;;;;;;;;;;17.80;78.50;;;;;;4588599;19;19923;-20
2022/05/03 02:06:12;;;;;;;;;;;17.70;78.50;;;;;;4588470;19;20329;-20
2022/05/03 02:07:48;;;;;;;;;;;17.70;78.50;;;;;;4588607;19;20014;-20
2022/05/03 02:09:21;;;;;;;;;;;17.70;78.50;;;;;;4589335;19;19919;-19
2022/05/03 02:10:58;;;;;;;;;;;17.70;78.60;;;;;;4591151;19;19990;-20
2022/05/03 02:12:29;;;;;;;;;;;17.70;78.50;;;;;;4593479;19;19938;-20
2022/05/03 02:15:58;;;;;;;;;;;17.70;78.50;;;;;;4593134;19;19945;-19
2022/05/03 02:17:30;;;;;;;;;;;17.70;78.50;;;;;;4594016;19;19974;-21
2022/05/03 02:19:07;;;;;;;;;;;17.70;78.40;;;;;;4593198;19;20289;-21
2022/05/03 02:20:45;;;;;;;;;;;17.70;78.30;;;;;;4591882;19;20381;-20
2022/05/03 02:22:16;;;;;;;;;;;17.70;78.30;;;;;;4591313;19;20358;-20
2022/05/03 02:23:48;;;;;;;;;;;17.70;78.20;;;;;;4593795;19;19915;-20
2022/05/03 02:25:20;;;;;;;;;;;17.70;78.10;;;;;;4592860;19;19926;-19
2022/05/03 02:26:56;;;;;;;;;;;17.70;78.00;;;;;;4592545;19;19915;-20
2022/05/03 02:28:27;;;;;;;;;;;17.70;78.00;;;;;;4593310;19;20373;-20
2022/05/03 02:29:58;;;;;;;;;;;17.70;78.00;;;;;;4593659;19;19927;-20
2022/05/03 02:31:40;;;;;;;;;;;17.70;78.00;;;;;;4593011;19;19974;-21
2022/05/03 02:33:22;;;;;;;;;;;17.70;77.90;;;;;;4593443;19;19939;-20
2022/05/03 02:34:53;;;;;;;;;;;17.70;78.00;;;;;;4592645;19;20329;-23
2022/05/03 02:36:24;;;;;;;;;;;17.70;77.90;;;;;;4593476;19;19914;-20
2022/05/03 02:37:56;;;;;;;;;;;17.70;77.90;;;;;;4593134;19;19923;-20
2022/05/03 02:39:30;;;;;;;;;;;17.70;77.90;;;;;;4592821;19;20267;-20
2022/05/03 02:41:02;;;;;;;;;;;17.70;77.90;;;;;;4593348;19;19918;-20
2022/05/03 02:42:34;;;;;;;;;;;17.70;77.90;;;;;;4592488;19;19919;-20
2022/05/03 02:44:05;;;;;;;;;;;17.70;78.00;;;;;;4593838;19;19922;-20
2022/05/03 02:45:37;;;;;;;;;;;17.70;78.00;;;;;;4593308;19;19921;-19
2022/05/03 02:47:19;;;;;;;;;;;17.70;77.90;;;;;;4593911;19;19997;-20
2022/05/03 02:48:53;;;;;;;;;;;17.70;77.80;;;;;;4593877;19;20291;-20
2022/05/03 02:50:29;;;;;;;;;;;17.70;77.80;;;;;;4594136;19;19923;-19
2022/05/03 02:52:09;;;;;;;;;;;17.70;78.30;;;;;;4594481;19;20333;-20
2022/05/03 02:53:46;;;;;;;;;;;17.70;77.70;;;;;;4595509;19;19931;-20
2022/05/03 02:55:17;;;;;;;;;;;17.70;77.70;;;;;;4593888;19;20273;-20
2022/05/03 02:56:49;;;;;;;;;;;17.60;77.70;;;;;;4594481;19;19985;-20
2022/05/03 02:58:25;;;;;;;;;;;17.70;77.70;;;;;;4593753;19;19923;-20
2022/05/03 03:02:00;;;;;;;;;;;17.70;77.60;;;;;;4593882;19;19939;-20
2022/05/03 03:03:36;;;;;;;;;;;17.60;77.50;;;;;;4594987;19;19911;-22
2022/05/03 03:05:08;;;;;;;;;;;17.60;77.50;;;;;;4593731;19;19921;-20
2022/05/03 03:06:39;;;;;;;;;;;17.70;77.60;;;;;;4594404;19;19941;-19
2022/05/03 03:08:10;;;;;;;;;;;17.60;77.60;;;;;;4592066;19;20236;-20
2022/05/03 03:09:45;;;;;;;;;;;17.60;77.50;;;;;;4593615;19;19922;-19
2022/05/03 03:11:16;;;;;;;;;;;17.60;78.00;;;;;;4592070;19;19923;-22
2022/05/03 03:12:53;;;;;;;;;;;17.60;77.50;;;;;;4591707;19;20397;-20
2022/05/03 03:14:27;;;;;;;;;;;17.60;77.50;;;;;;4592652;19;20328;-20
2022/05/03 03:15:58;;;;;;;;;;;17.60;77.50;;;;;;4592233;19;19925;-21
2022/05/03 03:17:29;;;;;;;;;;;17.60;77.50;;;;;;4592305;19;19918;-20
2022/05/03 03:19:04;;;;;;;;;;;17.60;77.70;;;;;;4592315;19;19989;-19
2022/05/03 03:20:36;;;;;;;;;;;17.60;77.40;;;;;;4592008;19;19911;-19
2022/05/03 03:22:07;;;;;;;;;;;17.60;77.40;;;;;;4590084;19;20369;-21
2022/05/03 03:23:38;;;;;;;;;;;17.60;77.30;;;;;;4592113;19;19922;-20
2022/05/03 03:25:13;;;;;;;;;;;17.60;77.30;;;;;;4592069;19;20242;-20
2022/05/03 03:26:44;;;;;;;;;;;17.60;77.20;;;;;;4591998;19;19924;-20
2022/05/03 03:28:22;;;;;;;;;;;17.60;77.20;;;;;;4592135;19;19948;-20
2022/05/03 03:29:54;;;;;;;;;;;17.70;77.20;;;;;;4592001;19;19910;-20
2022/05/03 03:31:25;;;;;;;;;;;17.60;77.10;;;;;;4589421;19;20352;-20
2022/05/03 03:32:56;;;;;;;;;;;17.60;77.10;;;;;;4592467;19;20849;-20
2022/05/03 03:34:27;;;;;;;;;;;17.60;77.10;;;;;;4592096;19;19932;-22
2022/05/03 03:35:58;;;;;;;;;;;17.60;77.10;;;;;;4591917;19;20249;-21
2022/05/03 03:37:30;;;;;;;;;;;17.60;77.10;;;;;;4591934;19;19922;-20
2022/05/03 03:39:01;;;;;;;;;;;17.60;77.10;;;;;;4591836;19;19948;-20
2022/05/03 03:40:32;;;;;;;;;;;17.60;77.10;;;;;;4592430;19;19919;-20
2022/05/03 03:42:03;;;;;;;;;;;17.60;77.10;;;;;;4590938;19;19918;-20
2022/05/03 03:43:34;;;;;;;;;;;17.60;77.10;;;;;;4594299;19;19915;-20
2022/05/03 03:45:08;;;;;;;;;;;17.60;77.30;;;;;;4594089;19;19936;-19
2022/05/03 03:46:39;;;;;;;;;;;17.60;77.20;;;;;;4593812;19;20237;-20
2022/05/03 03:48:10;;;;;;;;;;;17.60;77.20;;;;;;4591947;19;19922;-20
2022/05/03 03:49:41;;;;;;;;;;;17.60;77.20;;;;;;4593960;19;19919;-23
2022/05/03 03:51:12;;;;;;;;;;;17.60;77.20;;;;;;4592709;19;19927;-20
2022/05/03 03:52:47;;;;;;;;;;;17.60;77.20;;;;;;4592488;19;20365;-19
2022/05/03 03:54:19;;;;;;;;;;;17.60;77.20;;;;;;4593153;19;20294;-21
2022/05/03 03:55:50;;;;;;;;;;;17.60;77.20;;;;;;4592563;19;19915;-20
2022/05/03 03:57:21;;;;;;;;;;;17.60;77.20;;;;;;4592526;19;19922;-20
2022/05/03 03:58:52;;;;;;;;;;;17.60;77.20;;;;;;4592199;19;19907;-21
2022/05/03 04:00:23;;;;;;;;;;;17.60;77.20;;;;;;4592326;19;20253;-20
2022/05/03 04:01:54;;;;;;;;;;;17.60;77.20;;;;;;4592552;19;19938;-20
2022/05/03 04:03:26;;;;;;;;;;;17.60;77.20;;;;;;4592826;19;19947;-20
2022/05/03 04:04:57;;;;;;;;;;;17.60;77.30;;;;;;4592439;19;19922;-20
2022/05/03 04:06:27;;;;;;;;;;;17.60;77.30;;;;;;4592301;19;19978;-20
2022/05/03 04:07:58;;;;;;;;;;;17.60;77.40;;;;;;4593102;19;20353;-20
2022/05/03 04:09:30;;;;;;;;;;;17.50;77.40;;;;;;4592811;19;20333;-20
2022/05/03 04:11:12;;;;;;;;;;;17.50;77.50;;;;;;4592283;19;19938;-19
2022/05/03 04:12:43;;;;;;;;;;;17.50;77.60;;;;;;4593127;19;19915;-20
2022/05/03 04:14:14;;;;;;;;;;;17.50;77.60;;;;;;4593474;19;19915;-20
2022/05/03 04:15:45;;;;;;;;;;;17.50;77.60;;;;;;4591850;19;19931;-20
2022/05/03 04:17:16;;;;;;;;;;;17.50;78.10;;;;;;4591434;19;20261;-19
2022/05/03 04:18:47;;;;;;;;;;;17.50;77.60;;;;;;4593655;19;19934;-21
2022/05/03 04:20:18;;;;;;;;;;;17.50;77.60;;;;;;4593649;19;19911;-20
2022/05/03 04:21:49;;;;;;;;;;;17.50;78.20;;;;;;4592879;19;19931;-22
2022/05/03 04:23:21;;;;;;;;;;;17.50;77.70;;;;;;4593326;19;19939;-20
2022/05/03 04:24:52;;;;;;;;;;;17.50;77.70;;;;;;4593206;19;19910;-20
2022/05/03 04:26:23;;;;;;;;;;;17.50;77.70;;;;;;4592824;19;19929;-19
2022/05/03 04:27:54;;;;;;;;;;;17.50;77.80;;;;;;4591849;19;19927;-19
2022/05/03 04:29:25;;;;;;;;;;;17.50;77.80;;;;;;4592764;19;19914;-20
2022/05/03 04:30:56;;;;;;;;;;;17.50;77.90;;;;;;4593434;19;19919;-20
2022/05/03 04:32:28;;;;;;;;;;;17.50;78.00;;;;;;4593180;19;19937;-20
2022/05/03 04:34:02;;;;;;;;;;;17.60;78.00;;;;;;4589409;19;19955;-20
2022/05/03 04:35:32;;;;;;;;;;;17.60;78.10;;;;;;4592335;19;19919;-20
2022/05/03 04:37:03;;;;;;;;;;;17.50;78.10;;;;;;4593401;19;20017;-19
2022/05/03 04:38:34;;;;;;;;;;;17.50;78.10;;;;;;4592538;19;19931;-20
2022/05/03 04:40:05;;;;;;;;;;;17.60;78.20;;;;;;4592813;19;19921;-20
2022/05/03 04:41:36;;;;;;;;;;;17.60;78.30;;;;;;4593017;19;19925;-20
2022/05/03 04:43:07;;;;;;;;;;;17.60;78.30;;;;;;4592820;19;19926;-20
2022/05/03 04:44:38;;;;;;;;;;;17.60;78.40;;;;;;4592511;19;19914;-20
2022/05/03 04:46:09;;;;;;;;;;;17.60;78.40;;;;;;4592218;19;20003;-21
2022/05/03 04:47:40;;;;;;;;;;;17.60;78.50;;;;;;4593121;19;19918;-19
2022/05/03 04:49:11;;;;;;;;;;;17.60;78.50;;;;;;4591888;19;19952;-20
2022/05/03 04:50:41;;;;;;;;;;;17.60;78.50;;;;;;4592708;19;20230;-21
2022/05/03 04:52:13;;;;;;;;;;;17.60;78.60;;;;;;4592646;19;20321;-19
2022/05/03 04:53:44;;;;;;;;;;;17.60;78.70;;;;;;4592532;19;19921;-19
2022/05/03 04:55:15;;;;;;;;;;;17.60;78.60;;;;;;4592024;19;19918;-20
2022/05/03 04:56:47;;;;;;;;;;;17.60;78.70;;;;;;4592982;19;20325;-20
2022/05/03 04:58:18;;;;;;;;;;;17.60;78.70;;;;;;4590776;19;20296;-20
2022/05/03 04:59:49;;;;;;;;;;;17.60;78.70;;;;;;4592439;19;19922;-20
2022/05/03 05:01:20;;;;;;;;;;;17.60;78.80;;;;;;4592222;19;19918;-20
2022/05/03 05:02:51;;;;;;;;;;;17.60;78.70;;;;;;4591075;19;19918;-19
2022/05/03 05:04:22;;;;;;;;;;;17.60;78.60;;;;;;4592919;19;19914;-19
2022/05/03 05:05:53;;;;;;;;;;;17.60;78.60;;;;;;4591342;19;20244;-20
2022/05/03 05:07:24;;;;;;;;;;;17.60;78.60;;;;;;4591175;19;19915;-19
2022/05/03 05:08:55;;;;;;;;;;;17.60;78.60;;;;;;4591252;19;19926;-20
2022/05/03 05:10:30;;;;;;;;;;;17.60;78.50;;;;;;4592699;19;19966;-20
2022/05/03 05:12:02;;;;;;;;;;;17.60;78.50;;;;;;4592264;19;19914;-19
2022/05/03 05:13:33;;;;;;;;;;;17.60;78.50;;;;;;4591174;19;19923;-21
2022/05/03 05:15:04;;;;;;;;;;;17.60;79.00;;;;;;4591847;19;20320;-20
2022/05/03 05:16:35;;;;;;;;;;;17.60;78.50;;;;;;4590633;19;19926;-20
2022/05/03 05:18:06;;;;;;;;;;;17.60;78.40;;;;;;4591499;19;20237;-20
2022/05/03 05:19:37;;;;;;;;;;;17.60;78.50;;;;;;4592086;19;19915;-20
2022/05/03 05:21:12;;;;;;;;;;;17.70;78.60;;;;;;4591610;19;19970;-20
2022/05/03 05:22:44;;;;;;;;;;;17.70;78.60;;;;;;4590553;19;19974;-20
2022/05/03 05:24:15;;;;;;;;;;;17.60;78.60;;;;;;4591263;19;19915;-20
2022/05/03 05:25:48;;;;;;;;;;;17.70;78.80;;;;;;4590604;19;20255;-20
2022/05/03 05:27:19;;;;;;;;;;;17.70;78.80;;;;;;4591633;19;19921;-20
2022/05/03 05:28:50;;;;;;;;;;;17.70;78.80;;;;;;4589978;19;20063;-20
2022/05/03 05:30:22;;;;;;;;;;;17.70;78.80;;;;;;4591492;19;19918;-20
2022/05/03 05:31:53;;;;;;;;;;;17.70;78.90;;;;;;4591894;19;19914;-20
2022/05/03 05:33:23;;;;;;;;;;;17.70;78.90;;;;;;4591531;19;20396;-20
2022/05/03 05:34:55;;;;;;;;;;;17.70;78.90;;;;;;4591371;19;19970;-20
2022/05/03 05:36:25;;;;;;;;;;;17.70;79.00;;;;;;4590953;19;19926;-20
2022/05/03 05:37:56;;;;;;;;;;;17.70;78.90;;;;;;4591880;19;19918;-21
2022/05/03 05:39:27;;;;;;;;;;;17.80;79.00;;;;;;4591792;19;19915;-21
2022/05/03 05:40:58;;;;;;;;;;;17.70;78.90;;;;;;4591160;19;20333;-20
2022/05/03 05:42:29;;;;;;;;;;;17.70;78.90;;;;;;4588814;19;19911;-23
2022/05/03 05:44:04;;;;;;;;;;;17.70;79.50;;;;;;4591615;19;19953;-20
2022/05/03 05:45:35;;;;;;;;;;;17.80;78.90;;;;;;4591583;19;19923;-20
2022/05/03 05:47:06;;;;;;;;;;;17.70;78.80;;;;;;4589806;19;19930;-19
2022/05/03 05:48:38;;;;;;;;;;;17.70;78.80;;;;;;4591214;19;20253;-20
2022/05/03 05:50:09;;;;;;;;;;;17.80;78.90;;;;;;4589388;19;19919;-20
2022/05/03 05:53:31;;;;;;;;;;;17.80;78.90;;;;;;4591088;19;19911;-20
2022/05/03 05:53:46;;;;;;;;;;;17.90;78.70;;;;;;4589732;19;19926;-20
2022/05/03 05:55:17;;;;;;;;;;;18.00;79.40;;;;;;4590421;19;19922;-20
2022/05/03 05:56:47;;;;;;;;;;;18.10;78.50;;;;;;4590892;19;19915;-20
2022/05/03 05:58:19;;;;;;;;;;;18.10;78.30;;;;;;4591290;19;19910;-20
2022/05/03 05:59:50;;;;;;;;;;;18.10;78.30;;;;;;4588682;19;19914;-23
2022/05/03 06:01:25;;;;;;;;;;;18.10;78.30;;;;;;4590369;19;20293;-20
2022/05/03 06:02:55;;;;;;;;;;;18.20;78.90;;;;;;4587810;19;19919;-20
2022/05/03 06:04:29;;;;;;;;;;;18.20;78.30;;;;;;4591335;19;19922;-20
2022/05/03 06:06:01;;;;;;;;;;;18.20;78.20;;;;;;4590795;19;20332;-20
2022/05/03 06:07:31;;;;;;;;;;;18.20;78.20;;;;;;4591402;19;19915;-19
2022/05/03 06:09:02;;;;;;;;;;;18.20;78.20;;;;;;4588503;19;19911;-20
2022/05/03 06:10:33;;;;;;;;;;;18.20;78.30;;;;;;4589173;19;19911;-19
2022/05/03 06:12:05;;;;;;;;;;;18.20;78.30;;;;;;4589120;19;19985;-20
2022/05/03 06:13:35;;;;;;;;;;;18.20;78.30;;;;;;4590501;19;19938;-20
2022/05/03 06:15:07;;;;;;;;;;;18.30;78.40;;;;;;4589420;19;19930;-20
2022/05/03 06:16:53;;;;;;;;;;;18.30;79.00;;;;;;4588220;19;19923;-20
2022/05/03 06:18:24;;;;;;;;;;;18.40;78.20;;;;;;4590581;19;19911;-20
2022/05/03 06:19:55;;;;;;;;;;;18.50;78.00;;;;;;4591691;19;19918;-19
2022/05/03 06:21:26;;;;;;;;;;;18.60;77.90;;;;;;4593076;19;19942;-20
2022/05/03 06:22:57;;;;;;;;;;;18.70;77.80;;;;;;4589871;19;19978;-20
2022/05/03 06:24:28;;;;;;;3.45;1.95;;;18.70;77.90;;;;;;4589775;19;19915;-23
2022/05/03 06:25:59;;;;;;;3.78;2.00;;;18.80;77.60;;;;;;4588973;19;20449;-20
2022/05/03 06:27:31;;;;;;;3.90;2.20;;;18.80;77.40;;;;;;4587440;19;20417;-20
2022/05/03 06:29:06;;;;;;;;;;;18.80;77.40;;;;;;4589540;19;20469;-20
2022/05/03 06:30:37;;;;;;;2.97;1.65;;;18.90;77.30;;;;;;4588310;19;19931;-20
2022/05/03 06:32:10;;;;;;;3.50;1.50;;;18.90;77.40;;;;;;4588157;19;20010;-19
2022/05/03 06:33:41;;;;;;;2.55;1.55;;;18.90;77.40;;;;;;4589662;19;20030;-21
2022/05/03 06:35:13;;;;;;;2.35;1.40;;;18.90;77.30;;;;;;4589388;19;20089;-20
2022/05/03 06:36:45;;;;;;;2.38;1.42;;;18.90;77.30;;;;;;4589856;19;20040;-20
2022/05/03 06:38:16;;;;;;;2.17;1.50;;;18.90;77.30;;;;;;4590203;19;20014;-20
2022/05/03 06:39:47;;;;;;;1.77;1.00;;;18.90;77.20;;;;;;4588473;19;20015;-20
2022/05/03 06:41:18;;;;;;;2.70;1.13;;;18.90;77.20;;;;;;4589301;19;20015;-20
2022/05/03 06:42:49;;;;;;;2.10;1.30;;;18.90;77.10;;;;;;4588842;19;20010;-21
2022/05/03 06:44:20;;;;;;;1.52;0.98;;;18.90;77.10;;;;;;4589321;19;20078;-20
2022/05/03 06:45:53;;;;;;;2.47;1.50;;;18.90;77.10;;;;;;4589819;19;20006;-20
2022/05/03 06:47:25;;;;;;;2.08;1.30;;;18.90;77.00;;;;;;4589611;19;20038;-19
2022/05/03 06:48:56;;;;;;;2.47;1.52;;;19.00;77.00;;;;;;4589176;19;20444;-19
2022/05/03 06:50:29;;;;;;;;;;;19.00;81.80;;;;;;4589106;19;20018;-20
2022/05/03 06:52:00;;;;;;;;;;;19.10;77.10;;;;;;4589997;19;19922;-20
2022/05/03 06:53:31;;;;;;;;;;;19.10;76.70;;;;;;4589973;19;19978;-21
2022/05/03 06:55:03;;;;;;;;;;;19.10;76.80;;;;;;4591009;19;19911;-20
2022/05/03 06:56:37;;;;;;;;;;;19.10;76.80;;;;;;4591026;19;19966;-19
2022/05/03 06:58:08;;;;;;;;;;;19.10;76.60;;;;;;4593245;19;19911;-21
2022/05/03 06:59:39;;;;;;;;;;;19.10;76.90;;;;;;4593944;19;20263;-20
2022/05/03 07:01:10;;;;;;;;;;;19.10;77.50;;;;;;4594745;19;19923;-20
2022/05/03 07:02:42;;;;;;;;;;;19.20;76.80;;;;;;4594177;19;19907;-22
2022/05/03 07:04:13;;;;;;;;;;;19.20;76.40;;;;;;4594805;19;19923;-20
2022/05/03 07:05:44;;;;;;;;;;;19.10;76.40;;;;;;4594657;19;19925;-21
2022/05/03 07:07:15;;;;;;;;;;;19.10;76.60;;;;;;4594947;19;19938;-20
2022/05/03 07:08:46;;;;;;;;;;;19.10;76.50;;;;;;4594228;19;19915;-21
2022/05/03 07:10:17;;;;;;;;;;;19.10;76.60;;;;;;4596568;19;19932;-20
2022/05/03 07:11:47;;;;;;;;;;;19.10;76.40;;;;;;4596635;19;19921;-20
2022/05/03 07:13:23;;;;;;;;;;;19.00;76.40;;;;;;4595033;19;19918;-20
2022/05/03 07:15:01;;;;;;;;;;;19.10;76.50;;;;;;4596127;19;19918;-21
2022/05/03 07:16:31;;;;;;;;;;;19.00;76.40;;;;;;4595527;19;19914;-20
2022/05/03 07:23:31;;;;;;;;;;;19.10;76.60;;;;;;4596830;19;19911;-19
2022/05/03 07:25:02;;;;;;;;;;;19.10;76.40;;;;;;4596049;19;20274;-20
2022/05/03 07:26:33;;;;;;;;;;;19.10;76.40;;;;;;4596572;19;19942;-19
2022/05/03 07:28:05;;;;;;;;;;;19.10;76.20;;;;;;4594434;19;19918;-20
2022/05/03 07:29:37;;;;;;;;;;;19.10;76.30;;;;;;4595370;19;20315;-19
2022/05/03 07:31:09;;;;;;;;;;;19.00;76.40;;;;;;4596100;19;19915;-19
2022/05/03 07:32:41;;;;;;;;;;;19.10;76.90;;;;;;4596127;19;19932;-20
2022/05/03 07:34:12;;;;;;;;;;;19.10;76.20;;;;;;4596484;19;19934;-20
2022/05/03 07:35:44;;;;;;;;;;;19.20;76.00;;;;;;4595350;19;19915;-20
2022/05/03 07:37:15;;;;;;;;;;;19.30;75.70;;;;;;4596038;19;19970;-20
2022/05/03 07:38:46;;;;;;;;;;;19.50;75.50;;;;;;4596177;19;19930;-19
2022/05/03 07:40:16;;;;;;;;;;;19.70;75.60;;;;;;4595152;19;19914;-22
2022/05/03 07:41:47;;;;;;;;;;;19.80;75.30;;;;;;4595124;19;20329;-21
2022/05/03 07:43:18;;;;;;;2.45;1.13;;;20.20;86.40;;;;;;4594647;19;20011;-22
2022/05/03 07:44:49;;;;;;;6.13;1.38;;;20.30;76.90;;;;;;4593415;19;20491;-20
2022/05/03 07:46:20;;;;;;;;;;;20.50;78.60;;;;;;4594079;19;19999;-21
2022/05/03 07:47:51;;;;;;;2.13;1.05;;;20.50;78.20;;;;;;4594945;19;19918;-20
2022/05/03 07:49:22;;;;;;;1.83;0.88;;;20.50;73.90;;;;;;4592481;19;20370;-20
2022/05/03 07:50:53;;;;;;;1.92;1.27;;;20.50;73.70;;;;;;4593357;19;20098;-20
2022/05/03 07:52:24;;;;;;;1.02;0.57;;;20.50;73.60;;;;;;4592517;19;20007;-22
2022/05/03 07:53:56;;;;;;;1.27;0.95;;;20.50;73.60;;;;;;4591465;19;20368;-20
2022/05/03 07:55:27;;;;;;;2.03;1.02;;;20.60;75.10;;;;;;4592638;19;20082;-21
2022/05/03 07:56:58;;;;;;;1.25;0.88;;;20.50;75.20;;;;;;4592452;19;20014;-20
2022/05/03 07:58:29;;;;;;;1.42;0.80;;;20.50;73.50;;;;;;4592358;19;20011;-20
2022/05/03 08:00:00;;;;;;;1.50;0.93;;;20.40;74.00;;;;;;4592577;19;20010;-21
2022/05/03 08:01:32;;;;;;;1.35;0.77;;;20.50;74.10;;;;;;4593097;19;20066;-21
2022/05/03 08:03:02;;;;;;;1.65;0.80;;;20.50;78.80;;;;;;4591666;19;20009;-20
2022/05/03 08:04:33;;;;;;;1.92;0.95;;;20.50;73.80;;;;;;4592457;19;20390;-21
2022/05/03 08:06:04;;;;;;;0.95;0.65;;;20.50;81.20;;;;;;4592528;19;20456;-21
2022/05/03 08:07:36;;;;;;;0.80;0.55;;;20.50;73.70;;;;;;4593090;19;20477;-20
2022/05/03 08:09:07;;;;;;;0.82;0.50;;;20.40;73.70;;;;;;4591866;19;20037;-20
2022/05/03 08:10:38;;;;;;;1.20;0.80;;;20.30;73.60;;;;;;4592716;19;20015;-20
2022/05/03 08:12:09;;;;;;;1.38;0.70;;;20.30;73.70;;;;;;4593013;19;20011;-20
2022/05/03 08:13:41;;;;;;;0.77;0.60;;;20.30;73.70;;;;;;4592356;19;20030;-21
2022/05/03 08:15:12;;;;;;;1.98;1.30;;;20.20;73.70;;;;;;4592004;19;20010;-20
2022/05/03 08:16:45;;;;;;;0.95;0.50;;;20.40;83.70;;;;;;4591593;19;20461;-20
2022/05/03 08:18:16;;;;;;;1.27;0.63;;;20.50;76.30;;;;;;4591054;19;20018;-21
2022/05/03 08:19:47;;;;;;;1.55;0.68;;;20.40;73.90;;;;;;4592027;19;20014;-20
2022/05/03 08:21:18;;;;;;;1.30;0.80;;;20.30;73.70;;;;;;4592400;19;20428;-20
2022/05/03 08:22:49;;;;;;;2.30;1.70;;;19.80;74.20;;;;;;4591840;19;20011;-20
2022/05/03 08:24:20;;;;;;;;;;;17.60;77.60;;;;;;4592536;19;20011;-20
2022/05/03 08:25:53;;;;;;;;;;;16.20;80.40;;;;;;4593297;19;19930;-20
2022/05/03 08:27:24;;;;;;;;;;;15.40;82.60;;;;;;4591975;19;20328;-19
2022/05/03 08:28:54;;;;;;;;;;;14.90;83.80;;;;;;4592723;19;20347;-22
2022/05/03 08:30:25;;;;;;;;;;;14.60;84.00;;;;;;4593816;19;19942;-20
2022/05/03 08:31:57;;;;;;;;;;;14.50;84.60;;;;;;4592651;19;19949;-20
2022/05/03 08:33:28;;;;;;;;;;;14.40;85.30;;;;;;4592791;19;20261;-20
2022/05/03 08:34:59;;;;;;;;;;;14.30;83.80;;;;;;4592643;19;19932;-21
2022/05/03 08:36:30;;;;;;;;;;;14.30;82.90;;;;;;4592879;19;19970;-20
2022/05/03 08:43:29;;;;;;;;;;;14.20;82.00;;;;;;4591690;19;19986;-20
2022/05/03 08:45:01;;;;;;;;;;;14.20;82.00;;;;;;4592967;19;19916;-20
2022/05/03 08:46:33;;;;;;;;;;;14.20;81.00;;;;;;4592589;19;19922;-19
2022/05/03 08:48:04;;;;;;;;;;;14.20;81.10;;;;;;4592507;19;20300;-19
2022/05/03 08:49:55;;;;;;;;;;;14.20;81.40;;;;;;4591360;19;20329;-18
2022/05/03 08:51:25;;;;;;;;;;;14.20;79.90;;;;;;4592945;19;19915;-20
2022/05/03 08:53:00;;;;;;;;;;;14.30;79.60;;;;;;4591406;19;19920;-19
2022/05/03 08:54:32;;;;;;;;;;;14.30;79.00;;;;;;4593077;19;19926;-20
2022/05/03 08:56:03;;;;;;;;;;;14.30;78.30;;;;;;4598767;19;19918;-20
2022/05/03 08:57:34;;;;;;;;;;;14.30;78.70;;;;;;4599339;19;19945;-20
2022/05/03 08:59:05;;;;;;;;;;;14.30;79.60;;;;;;4599493;19;20013;-20
2022/05/03 09:00:36;;;;;;;;;;;14.40;79.70;;;;;;4600351;19;19971;-20
2022/05/03 09:02:08;;;;;;;;;;;14.30;78.90;;;;;;4599939;19;19910;-20
2022/05/03 09:03:39;;;;;;;;;;;14.40;78.80;;;;;;4600159;19;20261;-19
2022/05/03 09:05:11;;;;;;;;;;;14.40;78.40;;;;;;4599828;19;19919;-19
2022/05/03 09:06:42;;;;;;;;;;;14.40;78.90;;;;;;4600187;19;19982;-20
2022/05/03 09:08:18;;;;;;;;;;;14.40;79.80;;;;;;4600451;19;19923;-20
2022/05/03 09:09:49;;;;;;;;;;;14.40;79.20;;;;;;4599258;19;19918;-20
2022/05/03 09:11:20;;;;;;;;;;;14.30;78.70;;;;;;4599242;19;20242;-20
2022/05/03 09:12:51;;;;;;;;;;;14.30;78.90;;;;;;4599593;19;19925;-21